Terminal Aerodrome Forecast
Issued by NWS

Home | Current Version | Previous Version | Text Only | Print | Product List | Glossary Off
Versions: 1 2 3 4 5 6 7 8 9 10 11 12 13 14 15 16 17

000
FTUS43 KMPX 201050 AAA
TAFRNH
TAF AMD
KRNH 201050Z 2011/2106 01007KT 5SM -SHSN BKN009
      TEMPO 2011/2014 2SM -SNPL BKN012
     FM201400 33008KT P6SM OVC015
     FM202200 29009KT P6SM BKN025=

USA.gov is the U.S. government's official web portal to all federal, state and local government web resources and services.